sensor_id;sensor_type;location;lat;lon;timestamp;P1;durP1;ratioP1;P2;durP2;ratioP2
69026;SDS011;56080;47.594;19.116;2023-03-14T00:09:02;8.90;;;5.30;;
69026;SDS011;56080;47.594;19.116;2023-03-14T00:19:03;12.10;;;7.20;;
69026;SDS011;56080;47.594;19.116;2023-03-14T00:29:03;13.10;;;7.50;;
69026;SDS011;56080;47.594;19.116;2023-03-14T00:39:04;12.80;;;6.80;;
69026;SDS011;56080;47.594;19.116;2023-03-14T00:49:04;10.90;;;6.30;;
69026;SDS011;56080;47.594;19.116;2023-03-14T00:59:05;11.00;;;6.70;;
69026;SDS011;56080;47.594;19.116;2023-03-14T01:09:06;9.00;;;5.40;;
69026;SDS011;56080;47.594;19.116;2023-03-14T01:19:06;11.70;;;6.40;;
69026;SDS011;56080;47.594;19.116;2023-03-14T01:29:07;11.00;;;5.90;;
69026;SDS011;56080;47.594;19.116;2023-03-14T01:49:14;10.20;;;5.90;;
69026;SDS011;56080;47.594;19.116;2023-03-14T01:59:09;10.90;;;5.80;;
69026;SDS011;56080;47.594;19.116;2023-03-14T02:09:09;12.50;;;6.60;;
69026;SDS011;56080;47.594;19.116;2023-03-14T02:19:09;12.20;;;6.80;;
69026;SDS011;56080;47.594;19.116;2023-03-14T02:29:09;12.10;;;6.40;;
69026;SDS011;56080;47.594;19.116;2023-03-14T02:39:19;9.80;;;5.60;;
69026;SDS011;56080;47.594;19.116;2023-03-14T02:49:14;11.10;;;6.20;;
69026;SDS011;56080;47.594;19.116;2023-03-14T02:59:13;10.10;;;5.70;;
69026;SDS011;56080;47.594;19.116;2023-03-14T03:09:12;11.10;;;5.80;;
69026;SDS011;56080;47.594;19.116;2023-03-14T03:19:12;10.10;;;5.70;;
69026;SDS011;56080;47.594;19.116;2023-03-14T03:29:13;10.90;;;5.70;;
69026;SDS011;56080;47.594;19.116;2023-03-14T03:39:14;9.50;;;5.60;;
69026;SDS011;56080;47.594;19.116;2023-03-14T03:49:14;10.40;;;5.40;;
69026;SDS011;56080;47.594;19.116;2023-03-14T03:59:14;9.50;;;5.30;;
69026;SDS011;56080;47.594;19.116;2023-03-14T04:09:15;12.80;;;6.90;;
69026;SDS011;56080;47.594;19.116;2023-03-14T04:19:15;11.00;;;5.80;;
69026;SDS011;56080;47.594;19.116;2023-03-14T04:29:16;11.30;;;5.90;;
69026;SDS011;56080;47.594;19.116;2023-03-14T04:39:17;11.80;;;6.40;;
69026;SDS011;56080;47.594;19.116;2023-03-14T04:49:17;12.80;;;6.90;;
69026;SDS011;56080;47.594;19.116;2023-03-14T04:59:18;12.10;;;6.60;;
69026;SDS011;56080;47.594;19.116;2023-03-14T05:19:18;12.30;;;6.70;;
69026;SDS011;56080;47.594;19.116;2023-03-14T05:29:18;11.80;;;6.00;;
69026;SDS011;56080;47.594;19.116;2023-03-14T05:39:19;12.70;;;5.70;;
69026;SDS011;56080;47.594;19.116;2023-03-14T05:49:19;10.70;;;6.10;;
69026;SDS011;56080;47.594;19.116;2023-03-14T05:59:20;12.00;;;6.30;;
69026;SDS011;56080;47.594;19.116;2023-03-14T06:09:20;11.10;;;5.70;;
69026;SDS011;56080;47.594;19.116;2023-03-14T06:19:20;11.20;;;5.80;;
69026;SDS011;56080;47.594;19.116;2023-03-14T06:29:20;12.70;;;6.50;;
69026;SDS011;56080;47.594;19.116;2023-03-14T06:39:21;14.40;;;7.10;;
69026;SDS011;56080;47.594;19.116;2023-03-14T06:49:21;12.10;;;6.20;;
69026;SDS011;56080;47.594;19.116;2023-03-14T06:59:22;11.20;;;5.70;;
69026;SDS011;56080;47.594;19.116;2023-03-14T07:09:23;12.00;;;5.90;;
69026;SDS011;56080;47.594;19.116;2023-03-14T07:19:23;10.60;;;5.80;;
69026;SDS011;56080;47.594;19.116;2023-03-14T07:29:24;8.80;;;4.90;;
69026;SDS011;56080;47.594;19.116;2023-03-14T07:39:24;9.40;;;5.50;;
69026;SDS011;56080;47.594;19.116;2023-03-14T07:49:25;11.70;;;6.20;;
69026;SDS011;56080;47.594;19.116;2023-03-14T07:59:26;11.90;;;6.60;;
69026;SDS011;56080;47.594;19.116;2023-03-14T08:09:26;10.50;;;5.60;;
69026;SDS011;56080;47.594;19.116;2023-03-14T08:19:27;11.70;;;5.90;;
69026;SDS011;56080;47.594;19.116;2023-03-14T08:29:28;11.20;;;5.90;;
69026;SDS011;56080;47.594;19.116;2023-03-14T08:39:29;10.70;;;5.80;;
69026;SDS011;56080;47.594;19.116;2023-03-14T08:49:30;9.40;;;5.30;;
69026;SDS011;56080;47.594;19.116;2023-03-14T08:59:31;9.70;;;5.40;;
69026;SDS011;56080;47.594;19.116;2023-03-14T09:19:33;9.10;;;4.70;;
69026;SDS011;56080;47.594;19.116;2023-03-14T09:29:35;8.10;;;4.40;;
69026;SDS011;56080;47.594;19.116;2023-03-14T09:39:36;7.20;;;4.10;;
69026;SDS011;56080;47.594;19.116;2023-03-14T09:49:39;8.80;;;4.00;;
69026;SDS011;56080;47.594;19.116;2023-03-14T09:59:39;8.50;;;4.40;;
69026;SDS011;56080;47.594;19.116;2023-03-14T10:09:40;9.40;;;4.20;;
69026;SDS011;56080;47.594;19.116;2023-03-14T10:19:57;10.00;;;4.30;;
69026;SDS011;56080;47.594;19.116;2023-03-14T10:39:51;8.00;;;3.90;;
69026;SDS011;56080;47.594;19.116;2023-03-14T10:49:46;7.70;;;2.60;;
69026;SDS011;56080;47.594;19.116;2023-03-14T10:59:47;5.00;;;1.80;;
69026;SDS011;56080;47.594;19.116;2023-03-14T11:29:58;6.70;;;1.60;;
69026;SDS011;56080;47.594;19.116;2023-03-14T11:39:59;4.60;;;1.40;;
69026;SDS011;56080;47.594;19.116;2023-03-14T11:50:04;7.70;;;1.80;;
69026;SDS011;56080;47.594;19.116;2023-03-14T12:09:56;5.20;;;1.30;;
69026;SDS011;56080;47.594;19.116;2023-03-14T12:40:03;4.50;;;1.30;;
69026;SDS011;56080;47.594;19.116;2023-03-14T12:50:07;5.50;;;1.50;;
69026;SDS011;56080;47.594;19.116;2023-03-14T13:00:22;6.90;;;1.40;;
69026;SDS011;56080;47.594;19.116;2023-03-14T13:20:12;4.50;;;1.50;;
69026;SDS011;56080;47.594;19.116;2023-03-14T13:30:13;4.60;;;1.40;;
69026;SDS011;56080;47.594;19.116;2023-03-14T13:40:18;5.10;;;1.60;;
69026;SDS011;56080;47.594;19.116;2023-03-14T13:50:15;4.00;;;1.50;;
69026;SDS011;56080;47.594;19.116;2023-03-14T14:00:18;5.30;;;1.60;;
69026;SDS011;56080;47.594;19.116;2023-03-14T14:10:12;5.40;;;1.60;;
69026;SDS011;56080;47.594;19.116;2023-03-14T14:40:21;3.70;;;1.50;;
69026;SDS011;56080;47.594;19.116;2023-03-14T14:50:31;4.90;;;1.60;;
69026;SDS011;56080;47.594;19.116;2023-03-14T15:00:28;7.30;;;2.90;;
69026;SDS011;56080;47.594;19.116;2023-03-14T15:10:23;6.60;;;2.70;;
69026;SDS011;56080;47.594;19.116;2023-03-14T15:20:25;9.30;;;3.70;;
69026;SDS011;56080;47.594;19.116;2023-03-14T15:30:23;8.40;;;3.60;;
69026;SDS011;56080;47.594;19.116;2023-03-14T15:40:24;9.20;;;4.40;;
69026;SDS011;56080;47.594;19.116;2023-03-14T15:50:25;5.70;;;2.20;;
69026;SDS011;56080;47.594;19.116;2023-03-14T16:00:29;5.10;;;1.80;;
69026;SDS011;56080;47.594;19.116;2023-03-14T16:10:28;5.20;;;1.70;;
69026;SDS011;56080;47.594;19.116;2023-03-14T16:20:30;4.10;;;1.40;;
69026;SDS011;56080;47.594;19.116;2023-03-14T16:30:30;5.00;;;1.50;;
69026;SDS011;56080;47.594;19.116;2023-03-14T16:40:31;4.20;;;1.40;;
69026;SDS011;56080;47.594;19.116;2023-03-14T16:50:33;4.50;;;1.60;;
69026;SDS011;56080;47.594;19.116;2023-03-14T17:00:33;5.40;;;1.80;;
69026;SDS011;56080;47.594;19.116;2023-03-14T17:10:35;3.90;;;1.30;;
69026;SDS011;56080;47.594;19.116;2023-03-14T17:20:35;4.30;;;1.40;;
69026;SDS011;56080;47.594;19.116;2023-03-14T17:40:38;5.00;;;1.80;;
69026;SDS011;56080;47.594;19.116;2023-03-14T17:50:39;5.60;;;1.90;;
69026;SDS011;56080;47.594;19.116;2023-03-14T18:00:40;4.80;;;2.00;;
69026;SDS011;56080;47.594;19.116;2023-03-14T18:10:41;5.60;;;1.90;;
69026;SDS011;56080;47.594;19.116;2023-03-14T18:20:51;5.80;;;1.80;;
69026;SDS011;56080;47.594;19.116;2023-03-14T18:30:44;4.60;;;1.40;;
69026;SDS011;56080;47.594;19.116;2023-03-14T18:40:44;4.50;;;1.60;;
69026;SDS011;56080;47.594;19.116;2023-03-14T18:50:45;4.70;;;1.40;;
69026;SDS011;56080;47.594;19.116;2023-03-14T19:00:47;4.10;;;1.30;;
69026;SDS011;56080;47.594;19.116;2023-03-14T19:10:51;3.70;;;1.00;;
69026;SDS011;56080;47.594;19.116;2023-03-14T19:30:50;4.10;;;1.40;;
69026;SDS011;56080;47.594;19.116;2023-03-14T19:40:54;4.40;;;1.50;;
69026;SDS011;56080;47.594;19.116;2023-03-14T19:50:53;4.80;;;1.60;;
69026;SDS011;56080;47.594;19.116;2023-03-14T20:00:55;4.70;;;1.80;;
69026;SDS011;56080;47.594;19.116;2023-03-14T20:10:55;5.10;;;1.90;;
69026;SDS011;56080;47.594;19.116;2023-03-14T20:30:56;5.40;;;2.20;;
69026;SDS011;56080;47.594;19.116;2023-03-14T20:40:57;5.60;;;2.00;;
69026;SDS011;56080;47.594;19.116;2023-03-14T20:50:58;4.20;;;1.50;;
69026;SDS011;56080;47.594;19.116;2023-03-14T21:00:59;4.10;;;1.60;;
69026;SDS011;56080;47.594;19.116;2023-03-14T21:10:59;5.00;;;1.80;;
69026;SDS011;56080;47.594;19.116;2023-03-14T21:21:01;4.90;;;2.00;;
69026;SDS011;56080;47.594;19.116;2023-03-14T21:31:04;5.20;;;2.70;;
69026;SDS011;56080;47.594;19.116;2023-03-14T21:41:08;5.80;;;2.70;;
69026;SDS011;56080;47.594;19.116;2023-03-14T21:51:03;6.00;;;2.90;;
69026;SDS011;56080;47.594;19.116;2023-03-14T22:01:09;5.30;;;2.90;;
69026;SDS011;56080;47.594;19.116;2023-03-14T22:11:05;8.30;;;4.50;;
69026;SDS011;56080;47.594;19.116;2023-03-14T22:21:05;8.50;;;5.20;;
69026;SDS011;56080;47.594;19.116;2023-03-14T22:31:06;8.10;;;4.90;;
69026;SDS011;56080;47.594;19.116;2023-03-14T22:41:10;7.50;;;4.40;;
69026;SDS011;56080;47.594;19.116;2023-03-14T22:50:49;7.50;;;4.40;;
69026;SDS011;56080;47.594;19.116;2023-03-14T23:01:09;6.60;;;3.90;;
69026;SDS011;56080;47.594;19.116;2023-03-14T23:11:11;7.70;;;4.70;;
69026;SDS011;56080;47.594;19.116;2023-03-14T23:21:16;8.20;;;4.70;;
69026;SDS011;56080;47.594;19.116;2023-03-14T23:31:11;7.10;;;3.60;;
69026;SDS011;56080;47.594;19.116;2023-03-14T23:41:13;5.10;;;2.50;;
69026;SDS011;56080;47.594;19.116;2023-03-14T23:51:14;5.40;;;2.30;;
